Time;durP1;ratioP1;P1;durP2;ratioP2;P2;SDS_P1;SDS_P2;PMS_P1;PMS_P2;Temp;Humidity;BMP_temperature;BMP_pressure;BME280_temperature;BME280_humidity;BME280_pressure;Samples;Min_cycle;Max_cycle;Signal;HPM_P1;HPM_P2
2022/08/20 00:00:27;;;;;;;;;;;20.80;56.40;;;;;;5144240;27;19923;-47
2022/08/20 00:02:57;;;;;;;;;;;20.40;55.30;;;;;;5147750;27;20464;-47
2022/08/20 00:05:24;;;;;;;;;;;20.30;54.50;;;;;;5141649;27;20458;-46
2022/08/20 00:07:51;;;;;;;;;;;20.20;53.50;;;;;;5143874;27;20378;-47
2022/08/20 00:10:17;;;;;;;;;;;20.00;53.30;;;;;;5149517;27;20010;-49
2022/08/20 00:12:44;;;;;;;;;;;20.00;52.80;;;;;;5143959;27;20006;-46
2022/08/20 00:15:11;;;;;;;;;;;19.90;52.40;;;;;;5148270;27;20056;-50
2022/08/20 00:17:37;;;;;;;;;;;20.30;58.80;;;;;;5146204;27;19923;-45
2022/08/20 00:20:07;;;;;;;;;;;21.00;60.90;;;;;;5144148;27;19971;-47
2022/08/20 00:22:33;;;;;;;;;;;21.80;60.50;;;;;;5145036;27;19923;-51
2022/08/20 00:24:58;;;;;;;;;;;21.10;57.80;;;;;;5142933;27;19930;-46
2022/08/20 00:27:24;;;;;;;;;;;20.70;56.10;;;;;;5143736;27;20321;-45
2022/08/20 00:29:50;;;;;;;;;;;20.30;55.30;;;;;;5149270;27;19930;-48
2022/08/20 00:32:16;;;;;;;;;;;20.20;53.90;;;;;;5143478;27;19923;-45
2022/08/20 00:34:41;;;;;;;;;;;20.20;53.30;;;;;;5143531;27;19927;-52
2022/08/20 00:37:07;;;;;;;;;;;20.00;52.90;;;;;;5148815;27;20281;-44
2022/08/20 00:39:33;;;;;;;;;;;19.80;52.60;;;;;;5141747;27;19927;-50
2022/08/20 00:42:00;;;;;;;;;;;20.10;57.00;;;;;;5145679;27;20013;-46
2022/08/20 00:44:26;;;;;;;;;;;20.80;60.80;;;;;;5143011;27;19923;-46
2022/08/20 00:46:52;;;;;;;;;;;21.50;61.10;;;;;;5143341;27;19927;-50
2022/08/20 00:49:28;;;;;;;;;;;21.40;58.80;;;;;;5148675;27;19923;-48
2022/08/20 00:51:58;;;;;;;;;;;20.70;56.50;;;;;;5143166;27;19929;-45
2022/08/20 00:54:31;;;;;;;;;;;20.50;55.10;;;;;;5141742;27;20013;-49
2022/08/20 00:57:02;;;;;;;;;;;20.30;54.10;;;;;;5148625;27;19934;-46
2022/08/20 00:59:28;;;;;;;;;;;20.10;53.80;;;;;;5138909;27;19927;-51
2022/08/20 01:01:54;;;;;;;;;;;20.00;53.10;;;;;;5142011;27;20236;-47
2022/08/20 01:04:21;;;;;;;;;;;20.00;55.20;;;;;;5147073;27;19927;-47
2022/08/20 01:06:47;;;;;;;;;;;20.70;60.40;;;;;;5143162;27;20451;-47
2022/08/20 01:09:13;;;;;;;;;;;21.40;61.00;;;;;;5148543;27;20293;-46
2022/08/20 01:11:39;;;;;;;;;;;21.50;58.40;;;;;;5142804;27;19923;-45
2022/08/20 01:14:23;;;;;;;;;;;20.80;56.80;;;;;;5141658;27;19923;-45
2022/08/20 01:16:50;;;;;;;;;;;20.50;55.30;;;;;;5145470;27;19929;-46
2022/08/20 01:19:17;;;;;;;;;;;20.50;54.00;;;;;;5140477;27;19990;-46
2022/08/20 01:21:42;;;;;;;;;;;20.10;54.00;;;;;;5141195;27;20382;-49
2022/08/20 01:24:11;;;;;;;;;;;20.00;53.20;;;;;;5129680;27;19954;-49
2022/08/20 01:26:38;;;;;;;;;;;19.80;53.30;;;;;;5141619;27;20060;-49
2022/08/20 01:29:08;;;;;;;;;;;20.00;53.70;;;;;;5141122;27;19923;-49
2022/08/20 01:31:34;;;;;;;;;;;20.60;59.70;;;;;;5146778;27;20006;-46
2022/08/20 01:34:00;;;;;;;;;;;21.20;61.50;;;;;;5142504;27;20010;-48
2022/08/20 01:36:30;;;;;;;;;;;21.70;59.30;;;;;;5141374;27;19923;-57
2022/08/20 01:38:57;;;;;;;;;;;20.90;57.30;;;;;;5143562;27;20301;-45
2022/08/20 01:41:42;;;;;;;;;;;20.60;55.40;;;;;;5142115;27;19927;-47
2022/08/20 01:44:08;;;;;;;;;;;20.30;54.40;;;;;;5147794;27;19927;-50
2022/08/20 01:46:38;;;;;;;;;;;20.30;53.50;;;;;;5142737;27;19990;-46
2022/08/20 01:49:12;;;;;;;;;;;20.20;52.80;;;;;;5142209;27;19933;-45
2022/08/20 01:51:38;;;;;;;;;;;19.80;52.90;;;;;;5147775;27;20301;-49
2022/08/20 01:54:05;;;;;;;;;;;20.30;59.20;;;;;;5139003;27;19923;-48
2022/08/20 01:56:31;;;;;;;;;;;21.00;61.40;;;;;;5140255;27;19929;-45
2022/08/20 01:58:57;;;;;;;;;;;21.80;60.80;;;;;;5150135;27;19927;-45
2022/08/20 02:01:23;;;;;;;;;;;21.10;57.80;;;;;;5149062;27;19928;-46
2022/08/20 02:03:49;;;;;;;;;;;20.60;56.10;;;;;;5148811;27;19938;-47
2022/08/20 02:06:15;;;;;;;;;;;20.30;55.30;;;;;;5154462;27;19923;-49
2022/08/20 02:08:41;;;;;;;;;;;20.20;53.70;;;;;;5148844;27;19927;-47
2022/08/20 02:11:07;;;;;;;;;;;20.00;53.10;;;;;;5152354;27;20001;-46
2022/08/20 02:13:33;;;;;;;;;;;20.00;52.60;;;;;;5144495;27;19923;-49
2022/08/20 02:15:59;;;;;;;;;;;19.90;54.40;;;;;;5148462;27;19931;-46
2022/08/20 02:18:24;;;;;;;;;;;20.40;60.60;;;;;;5154320;27;19927;-46
2022/08/20 02:20:50;;;;;;;;;;;21.30;61.30;;;;;;5148882;27;20208;-49
2022/08/20 02:23:16;;;;;;;;;;;21.60;59.20;;;;;;5148704;27;20153;-44
2022/08/20 02:25:42;;;;;;;;;;;20.80;57.40;;;;;;5154275;27;19962;-46
2022/08/20 02:28:10;;;;;;;;;;;20.60;55.60;;;;;;5147549;27;20266;-48
2022/08/20 02:30:37;;;;;;;;;;;20.40;54.30;;;;;;5151110;27;19927;-50
2022/08/20 02:33:03;;;;;;;;;;;20.30;53.90;;;;;;5147604;27;19927;-45
2022/08/20 02:35:29;;;;;;;;;;;19.90;53.20;;;;;;5148484;27;19927;-45
2022/08/20 02:37:55;;;;;;;;;;;19.80;53.00;;;;;;5154273;27;20332;-47
2022/08/20 02:40:21;;;;;;;;;;;19.80;55.50;;;;;;5148884;27;19967;-48
2022/08/20 02:42:47;;;;;;;;;;;20.60;60.20;;;;;;5149102;27;19923;-48
2022/08/20 02:45:13;;;;;;;;;;;21.30;61.10;;;;;;5154037;27;20379;-46
2022/08/20 02:47:40;;;;;;;;;;;21.60;59.30;;;;;;5148214;27;20010;-45
2022/08/20 02:50:06;;;;;;;;;;;20.90;56.80;;;;;;5145773;27;19934;-55
2022/08/20 02:52:31;;;;;;;;;;;20.50;55.50;;;;;;5133611;27;20297;-49
2022/08/20 02:54:57;;;;;;;;;;;20.30;54.30;;;;;;5148434;27;19941;-46
2022/08/20 02:57:23;;;;;;;;;;;20.10;53.70;;;;;;5154135;27;19923;-46
2022/08/20 02:59:51;;;;;;;;;;;20.20;53.00;;;;;;5148653;27;20366;-45
2022/08/20 03:02:16;;;;;;;;;;;19.90;52.90;;;;;;5148764;27;20010;-46
2022/08/20 03:04:42;;;;;;;;;;;20.20;58.10;;;;;;5153933;27;19934;-49
2022/08/20 03:07:09;;;;;;;;;;;20.90;61.20;;;;;;5145818;27;20058;-51
2022/08/20 03:09:35;;;;;;;;;;;21.70;60.90;;;;;;5127035;27;19923;-46
2022/08/20 03:12:01;;;;;;;;;;;21.10;58.30;;;;;;5149450;27;20357;-47
2022/08/20 03:14:27;;;;;;;;;;;20.60;56.30;;;;;;5145288;27;19931;-46
2022/08/20 03:16:53;;;;;;;;;;;20.50;54.80;;;;;;5150648;27;20410;-49
2022/08/20 03:19:19;;;;;;;;;;;20.20;53.80;;;;;;5145082;27;19927;-48
2022/08/20 03:21:44;;;;;;;;;;;19.90;53.60;;;;;;5145018;27;20294;-45
2022/08/20 03:24:10;;;;;;;;;;;20.00;52.60;;;;;;5150566;27;20375;-47
2022/08/20 03:26:36;;;;;;;;;;;20.20;57.40;;;;;;5139383;27;19934;-45
2022/08/20 03:29:02;;;;;;;;;;;20.80;61.40;;;;;;5143956;27;19941;-51
2022/08/20 03:31:28;;;;;;;;;;;21.60;61.00;;;;;;5150160;27;19963;-46
2022/08/20 03:33:54;;;;;;;;;;;21.30;58.30;;;;;;5144772;27;19923;-46
2022/08/20 03:36:23;;;;;;;;;;;20.60;56.70;;;;;;5150435;27;20013;-46
2022/08/20 03:38:49;;;;;;;;;;;20.30;55.20;;;;;;5145148;27;19930;-48
2022/08/20 03:41:15;;;;;;;;;;;20.20;54.20;;;;;;5144681;27;20305;-46
2022/08/20 03:43:41;;;;;;;;;;;20.00;52.90;;;;;;5147252;27;20309;-47
2022/08/20 03:46:07;;;;;;;;;;;19.80;53.00;;;;;;5142254;27;19923;-46
2022/08/20 03:48:32;;;;;;;;;;;19.80;55.10;;;;;;5144103;27;19927;-46
2022/08/20 03:50:59;;;;;;;;;;;20.50;60.60;;;;;;5149877;27;19927;-47
2022/08/20 03:53:28;;;;;;;;;;;21.30;61.40;;;;;;5144440;27;19923;-46
2022/08/20 03:55:54;;;;;;;;;;;21.60;59.30;;;;;;5146131;27;19979;-54
2022/08/20 03:58:20;;;;;;;;;;;20.90;56.90;;;;;;5148678;27;19927;-47
2022/08/20 04:00:49;;;;;;;;;;;20.60;55.40;;;;;;5144007;27;19975;-46
2022/08/20 04:03:17;;;;;;;;;;;20.30;54.30;;;;;;5144896;27;19923;-50
2022/08/20 04:05:43;;;;;;;;;;;20.00;53.80;;;;;;5143364;27;19927;-47
2022/08/20 04:08:10;;;;;;;;;;;19.80;53.30;;;;;;5143993;27;19930;-46
2022/08/20 04:10:36;;;;;;;;;;;19.90;52.40;;;;;;5149546;27;19934;-49
2022/08/20 04:13:02;;;;;;;;;;;19.70;53.40;;;;;;5144291;27;20021;-47
2022/08/20 04:15:28;;;;;;;;;;;20.30;59.80;;;;;;5144216;27;20013;-47
2022/08/20 04:17:54;;;;;;;;;;;21.10;61.10;;;;;;5149417;27;19930;-46
2022/08/20 04:20:22;;;;;;;;;;;21.70;60.00;;;;;;5141256;27;20363;-49
2022/08/20 04:22:51;;;;;;;;;;;21.00;57.60;;;;;;5146070;27;19934;-46
2022/08/20 04:25:16;;;;;;;;;;;20.50;56.00;;;;;;5143581;27;20021;-46
2022/08/20 04:27:45;;;;;;;;;;;20.20;55.00;;;;;;5144037;27;20431;-46
2022/08/20 04:30:11;;;;;;;;;;;20.10;54.00;;;;;;5149348;27;20026;-48
2022/08/20 04:32:37;;;;;;;;;;;20.00;53.10;;;;;;5143837;27;19923;-48
2022/08/20 04:35:04;;;;;;;;;;;20.00;52.80;;;;;;5143684;27;19930;-47
2022/08/20 04:37:30;;;;;;;;;;;20.20;57.50;;;;;;5149141;27;19977;-48
2022/08/20 04:42:41;;;;;;;;;;;21.60;61.10;;;;;;5142922;27;19923;-45
2022/08/20 04:45:07;;;;;;;;;;;21.10;58.20;;;;;;5148996;27;19931;-46
2022/08/20 04:47:33;;;;;;;;;;;20.50;56.90;;;;;;5143517;27;20297;-44
2022/08/20 04:49:59;;;;;;;;;;;20.40;54.90;;;;;;5147927;27;19927;-56
2022/08/20 04:52:26;;;;;;;;;;;20.10;54.30;;;;;;5144533;27;19927;-46
2022/08/20 04:54:54;;;;;;;;;;;19.80;53.50;;;;;;5143148;27;20025;-45
2022/08/20 04:57:20;;;;;;;;;;;20.10;52.90;;;;;;5145854;27;19927;-47
2022/08/20 04:59:46;;;;;;;;;;;19.90;54.70;;;;;;5140898;27;20022;-47
2022/08/20 05:02:12;;;;;;;;;;;20.60;60.60;;;;;;5142672;27;19927;-46
2022/08/20 05:04:38;;;;;;;;;;;21.20;62.10;;;;;;5148473;27;20297;-46
2022/08/20 05:07:03;;;;;;;;;;;21.70;60.60;;;;;;5143001;27;19923;-47
2022/08/20 05:09:31;;;;;;;;;;;21.00;57.90;;;;;;5143755;27;20392;-53
2022/08/20 05:11:57;;;;;;;;;;;20.50;56.30;;;;;;5148393;27;19931;-49
2022/08/20 05:14:23;;;;;;;;;;;20.20;54.70;;;;;;5142817;27;19923;-47
2022/08/20 05:16:49;;;;;;;;;;;19.90;54.10;;;;;;5143472;27;20111;-46
2022/08/20 05:19:16;;;;;;;;;;;19.80;53.40;;;;;;5142018;27;19927;-47
2022/08/20 05:21:42;;;;;;;;;;;19.80;53.00;;;;;;5142728;27;20277;-46
2022/08/20 05:24:08;;;;;;;;;;;20.30;60.40;;;;;;5148063;27;19923;-48
2022/08/20 05:26:34;;;;;;;;;;;21.10;62.20;;;;;;5142735;27;19923;-45
2022/08/20 05:29:00;;;;;;;;;;;21.80;62.00;;;;;;5142716;27;20418;-45
2022/08/20 05:31:27;;;;;;;;;;;21.10;58.80;;;;;;5147918;27;19927;-46
2022/08/20 05:33:55;;;;;;;;;;;20.70;56.50;;;;;;5139038;27;20169;-47
2022/08/20 05:36:21;;;;;;;;;;;20.40;55.40;;;;;;5145534;27;20460;-45
2022/08/20 05:38:47;;;;;;;;;;;20.20;54.50;;;;;;5142061;27;20017;-45
2022/08/20 05:41:13;;;;;;;;;;;20.00;53.70;;;;;;5142346;27;19927;-46
2022/08/20 05:43:39;;;;;;;;;;;19.90;54.30;;;;;;5147758;27;19927;-46
2022/08/20 05:46:05;;;;;;;;;;;20.50;60.50;;;;;;5142452;27;19923;-48
2022/08/20 05:48:33;;;;;;;;;;;21.20;62.50;;;;;;5142258;27;20602;-49
2022/08/20 05:50:59;;;;;;;;;;;21.70;60.70;;;;;;5147773;27;19945;-47
2022/08/20 05:53:25;;;;;;;;;;;20.80;58.10;;;;;;5137911;27;19927;-46
2022/08/20 05:55:51;;;;;;;;;;;20.50;56.20;;;;;;5144209;27;19931;-55
2022/08/20 05:58:19;;;;;;;;;;;20.50;54.60;;;;;;5145053;27;19934;-50
2022/08/20 06:00:45;;;;;;;;;;;20.20;53.60;;;;;;5142172;27;19923;-46
2022/08/20 06:05:55;;;;;;;;;;;19.80;53.20;;;;;;5142488;27;20354;-46
2022/08/20 06:08:21;;;;;;;;;;;19.70;55.10;;;;;;5142075;27;19929;-47
2022/08/20 06:10:47;;;;;;;;;;;20.30;60.90;;;;;;5144877;27;20298;-48
2022/08/20 06:13:13;;;;;;;;;;;21.20;62.30;;;;;;5139963;27;19923;-47
2022/08/20 06:15:39;;;;;;;;;;;21.70;61.00;;;;;;5141876;27;20226;-46
2022/08/20 06:18:06;;;;;;;;;;;21.00;58.70;;;;;;5147649;27;19981;-51
2022/08/20 06:20:33;;;;;;;;;;;20.60;56.60;;;;;;5142005;27;19949;-45
2022/08/20 06:22:58;;;;;;;;;;;20.30;55.40;;;;;;5143912;27;19979;-52
2022/08/20 06:25:24;;;;;;;;;;;20.30;54.10;;;;;;5145759;27;19930;-46
2022/08/20 06:27:50;;;;;;;;;;;19.90;53.80;;;;;;5142104;27;19923;-46
2022/08/20 06:30:16;;;;;;;;;;;19.80;54.00;;;;;;5142996;27;19938;-51
2022/08/20 06:32:42;;;;;;;;;;;20.40;60.80;;;;;;5141300;27;19930;-47
2022/08/20 06:35:08;;;;;;;;;;;21.10;62.60;;;;;;5141776;27;20295;-49
2022/08/20 06:37:35;;;;;;;;;;;21.70;61.40;;;;;;5147274;27;19929;-46
2022/08/20 06:40:11;;;;;;;;;;;21.10;58.30;;;;;;5141867;27;20026;-44
2022/08/20 06:42:42;;;;;;;;;;;20.60;56.60;;;;;;5141740;27;20234;-47
2022/08/20 06:45:09;;;;;;;;;;;20.30;55.20;;;;;;5148859;27;19945;-46
2022/08/20 06:47:35;;;;;;;;;;;20.10;54.10;;;;;;5142887;27;20084;-46
2022/08/20 06:50:00;;;;;;;;;;;20.00;53.90;;;;;;5144554;27;19972;-55
2022/08/20 06:52:26;;;;;;;;;;;20.00;53.10;;;;;;5147483;27;19927;-47
2022/08/20 06:54:52;;;;;;;;;;;20.10;55.80;;;;;;5145903;27;19970;-46
2022/08/20 06:57:18;;;;;;;;;;;20.70;61.40;;;;;;5151238;27;19934;-46
2022/08/20 06:59:44;;;;;;;;;;;21.40;62.20;;;;;;5145523;27;19923;-47
2022/08/20 07:02:12;;;;;;;;;;;21.50;59.80;;;;;;5145264;27;19975;-46
2022/08/20 07:04:38;;;;;;;;;;;20.80;57.90;;;;;;5150644;27;19927;-45
2022/08/20 07:07:04;;;;;;;;;;;20.40;55.70;;;;;;5140875;27;19938;-47
2022/08/20 07:09:30;;;;;;;;;;;20.40;54.70;;;;;;5126396;27;20379;-56
2022/08/20 07:11:55;;;;;;;;;;;20.20;54.10;;;;;;5150484;27;19923;-46
2022/08/20 07:14:21;;;;;;;;;;;19.90;53.70;;;;;;5145160;27;19930;-47
2022/08/20 07:16:48;;;;;;;;;;;19.90;52.90;;;;;;5150602;27;19956;-46
2022/08/20 07:19:14;;;;;;;;;;;20.00;54.90;;;;;;5145292;27;19923;-47
2022/08/20 07:21:40;;;;;;;;;;;20.60;61.00;;;;;;5145280;27;19927;-49
2022/08/20 07:24:05;;;;;;;;;;;21.30;62.50;;;;;;5148053;27;19923;-49
2022/08/20 07:26:31;;;;;;;;;;;21.80;60.60;;;;;;5142652;27;19934;-47
2022/08/20 07:28:57;;;;;;;;;;;20.80;58.60;;;;;;5144406;27;19923;-47
2022/08/20 07:34:07;;;;;;;;;;;20.40;54.70;;;;;;5145039;27;19937;-48
2022/08/20 07:36:33;;;;;;;;;;;20.10;54.10;;;;;;5146224;27;19923;-56
2022/08/20 07:39:00;;;;;;;;;;;19.90;53.30;;;;;;5149068;27;19947;-47
2022/08/20 07:41:26;;;;;;;;;;;20.00;54.00;;;;;;5144417;27;19930;-48
2022/08/20 07:43:52;;;;;;;;;;;20.50;60.70;;;;;;5145237;27;20358;-47
2022/08/20 07:46:18;;;;;;;;;;;21.10;62.50;;;;;;5143634;27;20017;-46
2022/08/20 07:48:45;;;;;;;;;;;21.70;60.80;;;;;;5144097;27;20378;-45
2022/08/20 07:51:11;;;;;;;;;;;20.90;58.20;;;;;;5149975;27;19926;-46
2022/08/20 07:53:37;;;;;;;;;;;20.50;56.30;;;;;;5144368;27;19975;-44
2022/08/20 07:56:04;;;;;;;;;;;20.40;55.30;;;;;;5125163;27;19923;-46
2022/08/20 07:58:30;;;;;;;;;;;20.20;54.40;;;;;;5130991;27;19930;-46
2022/08/20 08:00:56;;;;;;;;;;;20.20;53.20;;;;;;5141683;27;19958;-47
2022/08/20 08:03:22;;;;;;;;;;;19.90;53.20;;;;;;5147230;27;19934;-47
2022/08/20 08:05:48;;;;;;;;;;;20.10;54.60;;;;;;5143850;27;20408;-47
2022/08/20 08:08:16;;;;;;;;;;;20.60;60.80;;;;;;5143992;27;20424;-45
2022/08/20 08:10:42;;;;;;;;;;;21.30;62.30;;;;;;5149635;27;20347;-49
2022/08/20 08:13:08;;;;;;;;;;;21.50;60.70;;;;;;5144179;27;19970;-45
2022/08/20 08:15:36;;;;;;;;;;;20.80;58.10;;;;;;5144040;27;19931;-45
2022/08/20 08:18:09;;;;;;;;;;;20.50;56.60;;;;;;5149524;27;19927;-45
2022/08/20 08:20:39;;;;;;;;;;;20.40;54.70;;;;;;5139522;27;20306;-45
2022/08/20 08:23:05;;;;;;;;;;;20.20;53.90;;;;;;5142936;27;19961;-49
2022/08/20 08:25:32;;;;;;;;;;;19.90;53.60;;;;;;5149170;27;19930;-47
2022/08/20 08:27:59;;;;;;;;;;;20.00;55.10;;;;;;5143751;27;20229;-47
2022/08/20 08:30:25;;;;;;;;;;;20.60;61.50;;;;;;5149282;27;20425;-46
2022/08/20 08:35:45;;;;;;;;;;;21.50;60.60;;;;;;5111171;27;20462;-47
2022/08/20 08:38:11;;;;;;;;;;;20.70;57.50;;;;;;5145692;27;19933;-46
2022/08/20 08:40:37;;;;;;;;;;;20.40;55.90;;;;;;5141765;27;20017;-48
2022/08/20 08:43:03;;;;;;;;;;;20.30;54.60;;;;;;5143140;27;19941;-50
2022/08/20 08:45:42;;;;;;;;;;;20.20;54.00;;;;;;5148736;27;20317;-47
2022/08/20 08:48:12;;;;;;;;;;;19.90;53.90;;;;;;5143393;27;19979;-47
2022/08/20 08:50:38;;;;;;;;;;;19.80;53.30;;;;;;5143510;27;19923;-46
2022/08/20 08:53:04;;;;;;;;;;;20.30;59.50;;;;;;5130533;27;19954;-49
2022/08/20 08:55:30;;;;;;;;;;;20.90;62.30;;;;;;5140737;27;19953;-51
2022/08/20 08:57:58;;;;;;;;;;;21.70;60.90;;;;;;5139589;27;19923;-47
2022/08/20 09:00:25;;;;;;;;;;;21.20;58.00;;;;;;5147049;27;20018;-45
2022/08/20 09:02:54;;;;;;;;;;;20.60;56.40;;;;;;5143044;27;19945;-45
2022/08/20 09:05:20;;;;;;;;;;;20.40;55.10;;;;;;5148662;27;19927;-45
2022/08/20 09:07:47;;;;;;;;;;;20.30;54.70;;;;;;5142561;27;19931;-48
2022/08/20 09:10:13;;;;;;;;;;;20.20;54.20;;;;;;5142409;27;20350;-45
2022/08/20 09:12:39;;;;;;;;;;;20.20;53.20;;;;;;5148423;27;19923;-47
2022/08/20 09:15:05;;;;;;;;;;;19.80;53.30;;;;;;5139280;27;19948;-50
2022/08/20 09:17:30;;;;;;;;;;;19.90;53.00;;;;;;5141287;27;20463;-47
2022/08/20 09:19:56;;;;;;;;;;;20.20;59.10;;;;;;5148189;27;19924;-46
2022/08/20 09:22:24;;;;;;;;;;;21.00;61.90;;;;;;5142922;27;19923;-47
2022/08/20 09:24:50;;;;;;;;;;;21.70;61.90;;;;;;5146553;27;19934;-54
2022/08/20 09:27:16;;;;;;;;;;;21.30;59.40;;;;;;5144567;27;19923;-46
2022/08/20 09:29:41;;;;;;;;;;;20.50;57.10;;;;;;5141301;27;19996;-48
2022/08/20 09:32:11;;;;;;;;;;;20.40;56.00;;;;;;5147243;27;19927;-49
2022/08/20 09:34:38;;;;;;;;;;;20.30;55.00;;;;;;5138767;27;19923;-47
2022/08/20 09:37:03;;;;;;;;;;;20.20;54.00;;;;;;5123466;27;20754;-46
2022/08/20 09:39:29;;;;;;;;;;;20.10;53.40;;;;;;5147830;27;19979;-48
2022/08/20 09:42:04;;;;;;;;;;;20.00;53.20;;;;;;5142418;27;19927;-47
2022/08/20 09:44:30;;;;;;;;;;;19.90;53.00;;;;;;5142519;27;20182;-49
2022/08/20 09:46:56;;;;;;;;;;;20.30;59.50;;;;;;5148089;27;19972;-47
2022/08/20 09:49:22;;;;;;;;;;;21.10;61.80;;;;;;5142538;27;19923;-48
2022/08/20 09:51:47;;;;;;;;;;;21.70;61.80;;;;;;5144473;27;19923;-47
2022/08/20 09:54:13;;;;;;;;;;;21.30;58.80;;;;;;5140703;27;20327;-47
2022/08/20 09:56:39;;;;;;;;;;;20.80;56.90;;;;;;5141915;27;19945;-48
2022/08/20 09:59:05;;;;;;;;;;;20.60;55.50;;;;;;5147770;27;20015;-46
2022/08/20 10:01:32;;;;;;;;;;;20.30;54.70;;;;;;5142446;27;19988;-46
2022/08/20 10:03:58;;;;;;;;;;;20.20;54.50;;;;;;5142031;27;19949;-46
2022/08/20 10:06:23;;;;;;;;;;;20.30;53.50;;;;;;5147508;27;19979;-46
2022/08/20 10:08:49;;;;;;;;;;;19.90;53.30;;;;;;5141194;27;19927;-48
2022/08/20 10:11:15;;;;;;;;;;;19.90;52.60;;;;;;5142754;27;19932;-53
2022/08/20 10:13:41;;;;;;;;;;;20.20;58.90;;;;;;5142729;27;19930;-49
2022/08/20 10:16:07;;;;;;;;;;;20.90;62.00;;;;;;5141825;27;19937;-48
2022/08/20 10:18:33;;;;;;;;;;;21.60;61.70;;;;;;5147482;27;19923;-47
2022/08/20 10:20:59;;;;;;;;;;;21.40;59.10;;;;;;5145162;27;19930;-46
2022/08/20 10:23:25;;;;;;;;;;;20.80;57.40;;;;;;5146232;27;20285;-46
2022/08/20 10:25:50;;;;;;;;;;;20.40;55.70;;;;;;5151809;27;20397;-44
2022/08/20 10:28:16;;;;;;;;;;;20.50;54.60;;;;;;5143280;27;19934;-47
2022/08/20 10:30:43;;;;;;;;;;;20.30;54.10;;;;;;5146367;27;20343;-57
2022/08/20 10:33:09;;;;;;;;;;;20.10;53.70;;;;;;5149869;27;19931;-46
2022/08/20 10:35:35;;;;;;;;;;;19.90;53.40;;;;;;5145816;27;19931;-46
2022/08/20 10:38:01;;;;;;;;;;;19.90;53.20;;;;;;5151621;27;19976;-46
2022/08/20 10:40:27;;;;;;;;;;;19.70;52.70;;;;;;5146017;27;19937;-50
2022/08/20 10:42:52;;;;;;;;;;;20.10;58.00;;;;;;5145866;27;19927;-48
2022/08/20 10:45:18;;;;;;;;;;;20.80;61.50;;;;;;5151302;27;19923;-47
2022/08/20 10:47:44;;;;;;;;;;;21.50;61.90;;;;;;5141211;27;19930;-48
2022/08/20 10:50:11;;;;;;;;;;;21.40;59.50;;;;;;5145050;27;20335;-47
2022/08/20 10:52:37;;;;;;;;;;;20.80;57.80;;;;;;5151173;27;19951;-45
2022/08/20 10:55:03;;;;;;;;;;;20.60;56.00;;;;;;5145563;27;19931;-47
2022/08/20 10:57:29;;;;;;;;;;;20.40;55.10;;;;;;5150871;27;20021;-46
2022/08/20 10:59:55;;;;;;;;;;;20.30;54.20;;;;;;5145287;27;20053;-45
2022/08/20 11:02:21;;;;;;;;;;;20.30;53.30;;;;;;5145257;27;19929;-48
2022/08/20 11:04:47;;;;;;;;;;;20.10;53.30;;;;;;5148142;27;19923;-48
2022/08/20 11:07:14;;;;;;;;;;;20.20;55.90;;;;;;5124670;27;20060;-50
2022/08/20 11:09:40;;;;;;;;;;;20.80;61.20;;;;;;5145058;27;19995;-45
2022/08/20 11:12:06;;;;;;;;;;;21.50;61.80;;;;;;5150879;27;20366;-46
2022/08/20 11:14:32;;;;;;;;;;;21.30;59.10;;;;;;5145347;27;20278;-45
2022/08/20 11:16:58;;;;;;;;;;;20.90;56.90;;;;;;5150872;27;20269;-45
2022/08/20 11:19:24;;;;;;;;;;;20.40;55.90;;;;;;5145380;27;19927;-46
2022/08/20 11:21:50;;;;;;;;;;;20.30;54.60;;;;;;5145329;27;20018;-45
2022/08/20 11:24:17;;;;;;;;;;;20.30;53.70;;;;;;5145873;27;19927;-46
2022/08/20 11:26:44;;;;;;;;;;;20.30;53.30;;;;;;5144242;27;19927;-49
2022/08/20 11:29:10;;;;;;;;;;;20.00;53.40;;;;;;5144923;27;20658;-46
2022/08/20 11:31:36;;;;;;;;;;;19.80;53.10;;;;;;5149346;27;19930;-46
2022/08/20 11:34:01;;;;;;;;;;;20.20;57.50;;;;;;5144888;27;19976;-47
2022/08/20 11:36:27;;;;;;;;;;;20.80;61.50;;;;;;5148484;27;20267;-53
2022/08/20 11:38:53;;;;;;;;;;;21.60;61.40;;;;;;5146954;27;19962;-44
2022/08/20 11:41:19;;;;;;;;;;;21.20;58.80;;;;;;5142058;27;19927;-48
2022/08/20 11:43:44;;;;;;;;;;;20.80;56.40;;;;;;5147398;27;20287;-45
2022/08/20 11:46:12;;;;;;;;;;;20.50;55.10;;;;;;5144337;27;19934;-45
2022/08/20 11:48:37;;;;;;;;;;;20.10;54.60;;;;;;5144419;27;20022;-45
2022/08/20 11:51:04;;;;;;;;;;;20.30;53.30;;;;;;5149999;27;19923;-46
2022/08/20 11:53:29;;;;;;;;;;;20.20;53.30;;;;;;5144378;27;19934;-48
2022/08/20 11:55:55;;;;;;;;;;;20.00;53.00;;;;;;5145183;27;19923;-55
2022/08/20 11:58:21;;;;;;;;;;;20.00;54.20;;;;;;5149708;27;20021;-47
2022/08/20 12:00:47;;;;;;;;;;;20.50;60.20;;;;;;5140203;27;19923;-46
2022/08/20 12:03:12;;;;;;;;;;;21.30;61.50;;;;;;5148726;27;19923;-46
2022/08/20 12:05:39;;;;;;;;;;;21.70;60.20;;;;;;5144047;27;20035;-47
2022/08/20 12:08:05;;;;;;;;;;;21.10;57.80;;;;;;5144264;27;20921;-45
2022/08/20 12:10:31;;;;;;;;;;;20.70;56.20;;;;;;5149658;27;19927;-49
2022/08/20 12:12:56;;;;;;;;;;;20.50;54.90;;;;;;5144351;27;20026;-46
2022/08/20 12:15:22;;;;;;;;;;;20.30;54.20;;;;;;5144181;27;20382;-44
2022/08/20 12:17:48;;;;;;;;;;;20.20;53.70;;;;;;5129072;27;20387;-50
2022/08/20 12:20:14;;;;;;;;;;;20.00;53.70;;;;;;5141014;27;20022;-48
2022/08/20 12:22:39;;;;;;;;;;;20.10;53.00;;;;;;5148843;27;19923;-49
2022/08/20 12:25:06;;;;;;;;;;;19.90;53.10;;;;;;5143854;27;19969;-48
2022/08/20 12:27:32;;;;;;;;;;;20.30;58.90;;;;;;5144127;27;19971;-49
2022/08/20 12:29:58;;;;;;;;;;;21.10;61.20;;;;;;5149416;27;20343;-47
2022/08/20 12:32:25;;;;;;;;;;;21.70;61.30;;;;;;5143425;27;19968;-46
2022/08/20 12:34:51;;;;;;;;;;;21.40;58.50;;;;;;5143613;27;20306;-48
2022/08/20 12:37:17;;;;;;;;;;;20.80;56.60;;;;;;5121182;27;19928;-43
2022/08/20 12:39:44;;;;;;;;;;;20.70;55.30;;;;;;5142249;27;19923;-48
2022/08/20 12:42:11;;;;;;;;;;;20.40;54.40;;;;;;5148475;27;19923;-49
2022/08/20 12:44:36;;;;;;;;;;;20.20;54.20;;;;;;5143698;27;20313;-47
2022/08/20 12:47:21;;;;;;;;;;;20.10;53.70;;;;;;5143429;27;19922;-46
2022/08/20 12:49:47;;;;;;;;;;;20.00;53.30;;;;;;5148925;27;20034;-45
2022/08/20 12:52:13;;;;;;;;;;;19.90;53.00;;;;;;5143290;27;20374;-47
2022/08/20 12:54:39;;;;;;;;;;;20.30;58.60;;;;;;5141172;27;20281;-49
2022/08/20 12:57:07;;;;;;;;;;;20.90;61.70;;;;;;5145871;27;19945;-49
2022/08/20 12:59:33;;;;;;;;;;;21.60;61.80;;;;;;5142566;27;19923;-45
2022/08/20 13:01:59;;;;;;;;;;;21.30;58.80;;;;;;5124605;27;19958;-45
2022/08/20 13:04:25;;;;;;;;;;;20.90;56.70;;;;;;5148435;27;20025;-45
2022/08/20 13:06:50;;;;;;;;;;;20.60;55.40;;;;;;5143040;27;20434;-46
2022/08/20 13:09:16;;;;;;;;;;;20.40;54.60;;;;;;5148426;27;19929;-52
2022/08/20 13:11:45;;;;;;;;;;;20.20;54.10;;;;;;5142986;27;19974;-46
2022/08/20 13:14:11;;;;;;;;;;;20.10;53.50;;;;;;5138441;27;19974;-48
2022/08/20 13:16:37;;;;;;;;;;;20.00;53.50;;;;;;5147248;27;19958;-47
2022/08/20 13:19:02;;;;;;;;;;;20.00;52.90;;;;;;5142771;27;19934;-47
2022/08/20 13:21:28;;;;;;;;;;;20.30;58.10;;;;;;5142801;27;20019;-49
2022/08/20 13:23:54;;;;;;;;;;;21.00;61.70;;;;;;5147959;27;19923;-47
2022/08/20 13:26:20;;;;;;;;;;;21.60;62.20;;;;;;5142616;27;20370;-47
2022/08/20 13:28:46;;;;;;;;;;;21.20;58.90;;;;;;5144894;27;19923;-53
2022/08/20 13:31:12;;;;;;;;;;;20.70;57.50;;;;;;5144564;27;19924;-52
2022/08/20 13:33:38;;;;;;;;;;;20.40;55.60;;;;;;5139286;27;20318;-49
2022/08/20 13:36:04;;;;;;;;;;;20.10;55.40;;;;;;5147605;27;19923;-48
2022/08/20 13:38:30;;;;;;;;;;;20.10;53.80;;;;;;5142229;27;19927;-46
2022/08/20 13:40:56;;;;;;;;;;;19.80;53.40;;;;;;5142550;27;19967;-46
2022/08/20 13:43:21;;;;;;;;;;;19.90;53.80;;;;;;5148002;27;19927;-47
2022/08/20 13:45:47;;;;;;;;;;;20.40;60.20;;;;;;5142532;27;20359;-49
2022/08/20 13:48:13;;;;;;;;;;;21.10;62.60;;;;;;5142365;27;19931;-50
2022/08/20 13:50:39;;;;;;;;;;;21.80;62.00;;;;;;5144252;27;20055;-56
2022/08/20 13:53:05;;;;;;;;;;;21.00;58.90;;;;;;5140608;27;19938;-46
2022/08/20 13:55:31;;;;;;;;;;;20.60;57.10;;;;;;5146953;27;19923;-47
2022/08/20 13:57:56;;;;;;;;;;;20.30;55.80;;;;;;5142496;27;19927;-46
2022/08/20 14:00:24;;;;;;;;;;;20.20;54.40;;;;;;5142430;27;19975;-46
2022/08/20 14:02:49;;;;;;;;;;;20.00;53.90;;;;;;5147789;27;19927;-45
2022/08/20 14:05:15;;;;;;;;;;;19.90;53.30;;;;;;5141966;27;20373;-46
2022/08/20 14:07:41;;;;;;;;;;;20.20;58.30;;;;;;5139288;27;20225;-48
2022/08/20 14:10:11;;;;;;;;;;;20.90;62.00;;;;;;5143437;27;19996;-49
2022/08/20 14:12:37;;;;;;;;;;;21.60;62.20;;;;;;5141804;27;19923;-45
2022/08/20 14:15:03;;;;;;;;;;;21.40;59.00;;;;;;5147355;27;20018;-47
2022/08/20 14:17:29;;;;;;;;;;;20.70;57.80;;;;;;5141964;27;19979;-47
2022/08/20 14:19:56;;;;;;;;;;;20.50;55.70;;;;;;5139141;27;20422;-47
2022/08/20 14:22:22;;;;;;;;;;;20.30;54.90;;;;;;5147619;27;20284;-45